• Join FlightAware (Why Join?)
  • Login
  • US Flag 
03:50PM EST


 

Airport Tracker/Info


-or-


 

Live Flight TrackerFlight Track Log ✈ SWA650 ✈ 01-Nov-2013 ✈ KDEN - KBOS

Flight Track Log - Related Links

Times and Time Zones

All times are in EDT time to prevent confusion due to time zone crossing. See the SWA650 flight status page for this flight to view local times or setup timezone preferences in your user account.

Time Position Orientation Groundspeed Altitude Reporting Facility
EDT Latitude Longitude Course Direction KTS MPH feet Rate Location/Type
12:44PM 39.8860 -104.6960 270° West 164 189 6,000  Level FlightAware
12:44PM 39.9070 -104.6850 22° Northeast 188 216 7,000 1,440 Climbing FlightAware
12:45PM 39.9260 -104.6510 54° Northeast 241 277 7,500 1,500 Climbing FlightAware
12:45PM 39.9440 -104.6160 56° Northeast 267 307 8,500 1,920 Climbing FlightAware
12:46PM 39.9510 -104.5410 83° East 306 352 9,800 900 Climbing FlightAware
12:47PM 39.9530 -104.4620 88° East 329 379 9,800 60 Level FlightAware
12:47PM 39.9560 -104.3780 87° East 331 381 9,900 840 Climbing FlightAware
12:48PM 39.9600 -104.3200 85° East 339 390 10,800 1,800 Climbing FlightAware
12:48PM 39.9650 -104.2520 84° East 361 415 11,800 840 Climbing FlightAware
12:49PM 39.9710 -104.1740 84° East 359 413 11,800 960 Level FlightAware
12:50PM 39.9860 -104.0240 83° East 368 423 13,600 1,980 Climbing FlightAware
12:51PM 39.9960 -103.9370 81° East 374 430 15,400 2,700 Climbing FlightAware
12:51PM 40.0010 -103.8980 80° East 373 429 16,200 2,520 Climbing FlightAware
12:52PM 40.0210 -103.7720 78° East 376 433 18,600 2,400 Climbing FlightAware
12:53PM 40.0320 -103.7080 77° East 380 437 19,700 2,220 Climbing FlightAware
12:53PM 40.0460 -103.6210 78° East 389 448 21,100 1,380 Climbing FlightAware
12:54PM 40.0710 -103.4700 78° East 405 466 22,200 660 Climbing FlightAware
12:55PM 40.0790 -103.4210 78° East 405 466 22,200  Level FlightAware
12:56PM 40.0950 -103.3230 78° East 405 466 22,200  Level FlightAware
12:56PM 40.1030 -103.2740 78° East 405 466 22,200  Level FlightAware
12:57PM 40.1150 -103.2010 78° East 405 466 22,200  Level FlightAware
12:57PM 40.1260 -103.1280 79° East 405 466 22,200  Level FlightAware
12:58PM 40.1390 -103.0520 77° East 405 466 22,200 3,900 Level FlightAware
12:59PM 40.1819 -102.7683 77° East 452 520 29,200 3,540 Climbing Denver Center
01:00PM 40.2092 -102.5953 78° East 469 540 30,100 840 Climbing Denver Center
01:01PM 40.2369 -102.4033 79° East 480 552 31,000 720 Climbing Denver Center
01:02PM 40.2636 -102.2347 78° East 492 566 31,600 660 Climbing Denver Center
01:03PM 40.2933 -102.0333 79° East 505 581 32,400 720 Climbing Denver Center
01:04PM 40.3186 -101.8589 79° East 510 587 33,200 720 Climbing Denver Center
01:06PM 40.3462 -101.6074 82° East  Level FlightAware Approximate
01:06PM 40.3742 -101.4792 82° East 516 594 34,800  Level Denver Center
01:07PM 40.4053 -101.2750 79° East 514 592 35,000 60 Climbing Denver Center
01:08PM 40.4297 -101.0986 80° East 515 593 35,000  Level Denver Center
01:09PM 40.4650 -100.8975 77° East 513 590 35,000  Level Denver Center
01:10PM 40.5211 -100.7422 65° Northeast 495 570 35,000  Level Denver Center
01:11PM 40.5872 -100.5636 64° Northeast 493 567 35,000  Level Denver Center
01:12PM 40.6442 -100.4100 64° Northeast 493 567 35,000  Level Denver Center
01:13PM 40.7103 -100.2311 64° Northeast 491 565 35,000  Level Denver Center
01:14PM 40.7669 -100.0778 64° Northeast 490 564 35,000  Level Denver Center
01:15PM 40.8250 -99.8911 68° East 497 572 35,000  Level Denver Center
01:17PM 40.8558 -99.7100 77° East 505 581 35,000  Level Denver Center
01:18PM 40.8858 -99.5300 78° East 504 580 35,000  Level Denver Center
01:23PM 41.0590 -98.4690 78° East 502 578 35,000  Level FlightAware
01:24PM 41.0740 -98.3700 79° East 503 579 35,000  Level FlightAware
01:25PM 41.1050 -98.1780 78° East 505 581 35,000  Level FlightAware
01:26PM 41.1230 -98.0620 78° East 506 582 35,000  Level FlightAware
01:26PM 41.1410 -97.9440 79° East 507 583 35,000  Level FlightAware
01:27PM 41.1590 -97.8250 79° East 508 585 35,000  Level FlightAware
01:27PM 41.1740 -97.7270 78° East 509 586 35,000  Level FlightAware
01:28PM 41.1930 -97.5990 79° East 509 586 35,000  Level FlightAware
01:29PM 41.2130 -97.4680 78° East 511 588 35,000  Level FlightAware
01:29PM 41.2320 -97.3400 79° East 514 592 35,000  Level FlightAware
01:30PM 41.2500 -97.2190 79° East 513 590 35,000  Level FlightAware
01:31PM 41.2660 -97.1060 79° East 513 590 35,000  Level FlightAware
01:31PM 41.2840 -96.9840 79° East 512 589 35,000  Level FlightAware
01:32PM 41.3020 -96.8630 79° East 510 587 35,000  Level FlightAware
01:33PM 41.3160 -96.7650 79° East 509 586 35,000  Level FlightAware
01:33PM 41.3280 -96.6800 79° East 508 585 35,000  Level FlightAware
01:34PM 41.3470 -96.5460 79° East 507 583 35,000  Level FlightAware
01:34PM 41.3610 -96.4450 80° East 506 582 35,000  Level FlightAware
01:35PM 41.3790 -96.3200 79° East 506 582 35,000  Level FlightAware
01:36PM 41.3980 -96.1750 80° East 507 583 35,000  Level FlightAware
01:36PM 41.4140 -96.0620 79° East 508 585 35,000  Level FlightAware
01:37PM 41.4280 -95.9540 80° East 509 586 35,000  Level FlightAware
01:38PM 41.4440 -95.8390 79° East 510 587 35,000  Level FlightAware
01:38PM 41.4560 -95.7460 80° East 510 587 35,000  Level FlightAware
01:39PM 41.4710 -95.6400 79° East 510 587 35,000  Level FlightAware
01:39PM 41.4860 -95.5200 80° East 511 588 35,000  Level FlightAware
01:40PM 41.5000 -95.4130 80° East 512 589 35,000  Level FlightAware
01:41PM 41.5210 -95.2500 80° East 515 593 35,000  Level FlightAware
01:41PM 41.5350 -95.1410 80° East 515 593 35,000  Level FlightAware
01:42PM 41.5500 -95.0250 80° East 516 594 35,000  Level FlightAware
01:43PM 41.5640 -94.9170 80° East 517 595 35,000  Level FlightAware
01:43PM 41.5820 -94.7760 80° East 517 595 35,000  Level FlightAware
01:44PM 41.5970 -94.6520 81° East 517 595 35,000  Level FlightAware
01:45PM 41.6130 -94.5230 81° East 518 596 35,000  Level FlightAware
01:45PM 41.6280 -94.3950 81° East 519 597 35,000  Level FlightAware
01:46PM 41.6450 -94.2560 81° East 520 598 35,000  Level FlightAware
01:47PM 41.6610 -94.1240 81° East 521 600 35,000  Level FlightAware
01:47PM 41.6750 -94.0030 81° East 523 602 35,000  Level FlightAware
01:48PM 41.6860 -93.9090 81° East 524 603 35,000  Level FlightAware
01:49PM 41.7110 -93.6880 81° East 526 605 35,000  Level FlightAware
01:50PM 41.7280 -93.5480 81° East 528 608 35,000  Level FlightAware
01:51PM 41.7510 -93.3400 82° East 529 609 35,000  Level FlightAware
01:51PM 41.7660 -93.2070 81° East 529 609 35,000  Level FlightAware
01:52PM 41.7750 -93.1170 82° East 529 609 35,000  Level FlightAware
01:53PM 41.7900 -92.9810 82° East 528 608 35,000  Level FlightAware
01:53PM 41.8040 -92.8600 81° East 528 608 35,000  Level FlightAware
01:54PM 41.8150 -92.7500 82° East 528 608 35,000  Level FlightAware
01:54PM 41.8260 -92.6520 81° East 528 608 35,000  Level FlightAware
01:55PM 41.8390 -92.5250 82° East 528 608 35,000  Level FlightAware
01:56PM 41.8520 -92.3950 82° East 526 605 35,000  Level FlightAware
01:57PM 41.8700 -92.2240 82° East 527 606 35,000  Level FlightAware
01:57PM 41.8820 -92.1000 83° East 528 608 35,000  Level FlightAware
01:58PM 41.8940 -91.9790 82° East 529 609 35,000  Level FlightAware
01:58PM 41.9060 -91.8570 82° East 530 610 35,000  Level FlightAware
01:59PM 41.9170 -91.7430 83° East 530 610 35,000  Level FlightAware
02:00PM 41.9380 -91.5300 82° East 531 611 35,000  Level FlightAware
02:01PM 41.9500 -91.3990 83° East 532 612 35,000  Level FlightAware
02:01PM 41.9610 -91.2860 83° East 530 610 35,000  Level FlightAware
02:02PM 41.9710 -91.1780 83° East 530 610 35,000  Level FlightAware
02:03PM 41.9910 -90.9600 83° East 529 609 35,000  Level FlightAware
02:04PM 42.0000 -90.8540 83° East 528 608 35,000  Level FlightAware
02:04PM 42.0100 -90.7420 83° East 527 606 35,000  Level FlightAware
02:05PM 42.0220 -90.6080 83° East 527 606 35,000  Level FlightAware
02:05PM 42.0310 -90.4980 84° East 527 606 35,000  Level FlightAware
02:06PM 42.0440 -90.3480 83° East 527 606 35,000  Level FlightAware
02:07PM 42.0570 -90.1990 83° East 527 606 35,000  Level FlightAware
02:08PM 42.0670 -90.0800 84° East 527 606 35,000  Level FlightAware
02:08PM 42.0740 -89.9880 84° East 527 606 35,000  Level FlightAware
02:09PM 42.0900 -89.7860 84° East 527 606 35,000  Level FlightAware
02:10PM 42.1000 -89.6650 84° East 527 606 35,000  Level FlightAware
02:10PM 42.1100 -89.5390 84° East 528 608 35,000  Level FlightAware
02:11PM 42.1140 -89.4850 84° East 528 608 35,000  Level FlightAware
02:12PM 42.1310 -89.2570 84° East 530 610 35,000  Level FlightAware
02:13PM 42.1470 -89.0440 84° East 529 609 35,000  Level FlightAware
02:13PM 42.1540 -88.9410 85° East 529 609 35,000  Level FlightAware
02:14PM 42.1690 -88.7400 84° East 528 608 35,000  Level FlightAware
02:15PM 42.1750 -88.6500 85° East 527 606 35,000  Level FlightAware
02:15PM 42.1830 -88.5340 85° East 527 606 35,000  Level FlightAware
02:16PM 42.1910 -88.4210 85° East 526 605 35,000  Level FlightAware
02:17PM 42.2010 -88.2720 85° East 526 605 35,000  Level FlightAware
02:17PM 42.2080 -88.1640 85° East 527 606 35,000  Level FlightAware
02:18PM 42.2140 -88.0710 85° East 526 605 35,000  Level FlightAware
02:18PM 42.2230 -87.9480 84° East 525 604 35,000  Level FlightAware
02:19PM 42.2380 -87.8380 80° East 525 604 35,000  Level FlightAware
02:20PM 42.2520 -87.7330 80° East 525 604 35,000  Level FlightAware
02:20PM 42.2670 -87.6290 79° East 524 603 35,000  Level FlightAware
02:21PM 42.3000 -87.3920 79° East 523 602 35,000  Level FlightAware
02:22PM 42.3180 -87.2600 80° East 521 600 35,000  Level FlightAware
02:23PM 42.3370 -87.0640 82° East 520 598 35,000  Level FlightAware
02:23PM 42.3380 -86.9880 89° East 520 598 35,000  Level FlightAware
02:24PM 42.3400 -86.8220 89° East 519 597 35,000  Level FlightAware
02:25PM 42.3420 -86.7200 88° East 518 596 35,000  Level FlightAware
02:26PM 42.3440 -86.5380 89° East 516 594 35,000  Level FlightAware
02:27PM 42.3460 -86.3110 89° East 515 593 35,000  Level FlightAware
02:28PM 42.3480 -86.1160 89° East 515 593 35,000  Level FlightAware
02:29PM 42.3540 -85.9140 88° East 516 594 35,000  Level FlightAware
02:30PM 42.3640 -85.8060 83° East 517 595 35,000  Level FlightAware
02:30PM 42.3730 -85.6910 84° East 516 594 35,000  Level FlightAware
02:31PM 42.3840 -85.5670 83° East 516 594 35,000  Level FlightAware
02:32PM 42.3960 -85.4150 84° East 517 595 35,000  Level FlightAware
02:32PM 42.4070 -85.2760 84° East 519 597 35,000  Level FlightAware
02:33PM 42.4190 -85.1280 84° East 521 600 35,000  Level FlightAware
02:34PM 42.4280 -85.0100 84° East 522 601 35,000  Level FlightAware
02:34PM 42.4370 -84.8970 84° East 523 602 35,000  Level FlightAware
02:35PM 42.4460 -84.7770 84° East 524 603 35,000  Level FlightAware
02:36PM 42.4570 -84.6220 84° East 524 603 35,000  Level FlightAware
02:36PM 42.4660 -84.5020 84° East 524 603 35,000  Level FlightAware
02:37PM 42.4800 -84.3050 84° East 524 603 35,000  Level FlightAware
02:38PM 42.4880 -84.2050 84° East 524 603 35,000  Level FlightAware
02:39PM 42.5000 -84.0350 84° East 525 604 35,000  Level FlightAware
02:39PM 42.5080 -83.9220 84° East 524 603 35,000  Level FlightAware
02:40PM 42.5150 -83.8220 85° East 523 602 35,000  Level FlightAware
02:41PM 42.5250 -83.6680 85° East 521 600 35,000  Level FlightAware
02:41PM 42.5320 -83.5550 85° East 521 600 35,000  Level FlightAware
02:42PM 42.5380 -83.4590 85° East 520 598 35,000  Level FlightAware
02:42PM 42.5450 -83.3420 85° East 520 598 35,000  Level FlightAware
02:43PM 42.5550 -83.1830 85° East 520 598 35,000  Level FlightAware
02:44PM 42.5620 -83.0630 85° East 519 597 35,000  Level FlightAware
02:45PM 42.5740 -82.8760 85° East 518 596 35,000  Level FlightAware
02:45PM 42.5830 -82.7100 86° East 518 596 35,000  Level FlightAware
02:46PM 42.5890 -82.6050 86° East 518 596 35,000  Level FlightAware
02:47PM 42.5960 -82.4880 85° East 519 597 35,000  Level FlightAware
02:47PM 42.6040 -82.3470 86° East 520 598 35,000  Level FlightAware
02:48PM 42.6140 -82.1480 86° East 520 598 35,000  Level FlightAware
02:49PM 42.6200 -82.0350 86° East 521 600 35,000  Level FlightAware
02:50PM 42.6310 -81.8260 86° East 523 602 35,000  Level FlightAware
02:51PM 42.6370 -81.6850 87° East 523 602 35,000  Level FlightAware
02:51PM 42.6440 -81.5450 86° East 524 603 35,000  Level FlightAware
02:52PM 42.6500 -81.4230 86° East 525 604 35,000  Level FlightAware
02:53PM 42.6550 -81.3130 86° East 525 604 35,000  Level FlightAware
02:53PM 42.6620 -81.1600 86° East 524 603 35,000  Level FlightAware
02:54PM 42.6670 -81.0460 87° East 524 603 35,000  Level FlightAware
02:55PM 42.6720 -80.9300 87° East 523 602 35,000  Level FlightAware
02:55PM 42.6760 -80.8160 87° East 523 602 35,000  Level FlightAware
02:56PM 42.6800 -80.7080 87° East 522 601 35,000  Level FlightAware
02:56PM 42.6850 -80.5880 87° East 521 600 35,000  Level FlightAware
02:57PM 42.6910 -80.4400 87° East 520 598 35,000  Level FlightAware
02:58PM 42.6950 -80.3420 87° East 520 598 35,000  Level FlightAware
02:58PM 42.6990 -80.2090 88° East 519 597 35,000  Level FlightAware
02:59PM 42.7060 -80.0170 87° East 517 595 35,000  Level FlightAware
03:00PM 42.7090 -79.9120 88° East 517 595 35,000  Level FlightAware
03:00PM 42.7120 -79.8280 87° East 517 595 35,000  Level FlightAware
03:01PM 42.7190 -79.6100 87° East 517 595 35,000  Level FlightAware
03:02PM 42.7220 -79.4930 88° East 517 595 35,000  Level FlightAware
03:02PM 42.7250 -79.4000 87° East 518 596 35,000  Level FlightAware
03:03PM 42.7300 -79.2190 88° East 522 601 35,000  Level FlightAware
03:04PM 42.7330 -79.1170 88° East 523 602 35,000  Level FlightAware
03:04PM 42.7360 -78.9860 88° East 524 603 35,000  Level FlightAware
03:05PM 42.7390 -78.8660 88° East 524 603 35,000  Level FlightAware
03:06PM 42.7440 -78.6450 88° East 522 601 35,000  Level FlightAware
03:07PM 42.7470 -78.4870 88° East 522 601 35,000  Level FlightAware
03:08PM 42.7490 -78.3820 88° East 521 600 35,000  Level FlightAware
03:08PM 42.7510 -78.2700 89° East 520 598 35,000  Level FlightAware
03:09PM 42.7540 -78.1470 88° East 521 600 35,000  Level FlightAware
03:09PM 42.7550 -78.0490 89° East 522 601 35,000  Level FlightAware
03:10PM 42.7570 -77.9460 88° East 523 602 35,000  Level FlightAware
03:10PM 42.7590 -77.8340 89° East 523 602 35,000  Level FlightAware
03:11PM 42.7610 -77.7130 89° East 522 601 35,000  Level FlightAware
03:12PM 42.7620 -77.5650 89° East 524 603 35,000  Level FlightAware
03:13PM 42.7650 -77.3290 89° East 525 604 35,000  Level FlightAware
03:13PM 42.7660 -77.2180 89° East 524 603 35,000  Level FlightAware
03:14PM 42.7670 -77.1130 89° East 524 603 35,000  Level FlightAware
03:14PM 42.7680 -77.0200 89° East 524 603 35,000  Level FlightAware
03:15PM 42.7690 -76.8750 89° East 524 603 35,000  Level FlightAware
03:16PM 42.7690 -76.7690 90° East 524 603 35,000  Level FlightAware
03:16PM 42.7700 -76.6490 89° East 527 606 35,000  Level FlightAware
03:17PM 42.7710 -76.5080 89° East 524 603 35,000  Level FlightAware
03:18PM 42.7710 -76.3930 90° East 530 610 35,000  Level FlightAware
03:18PM 42.7710 -76.2810 90° East 531 611 35,000  Level FlightAware
03:19PM 42.7710 -76.1750 90° East 531 611 35,000  Level FlightAware
03:20PM 42.7710 -75.9740 90° East 537 618 35,000  Level FlightAware
03:20PM 42.7710 -75.8910 90° East 538 619 35,000  Level FlightAware
03:21PM 42.7710 -75.7580 90° East 538 619 35,000  Level FlightAware
03:21PM 42.7700 -75.6280 91° East 537 618 35,000  Level FlightAware
03:22PM 42.7690 -75.4880 91° East 539 620 35,000  Level FlightAware
03:23PM 42.7680 -75.2660 90° East 537 618 35,000  Level FlightAware
03:24PM 42.7670 -75.1970 91° East 538 619 35,000  Level FlightAware
03:24PM 42.7660 -75.0800 91° East 539 620 35,000  Level FlightAware
03:25PM 42.7640 -74.8460 91° East 540 621 35,000  Level FlightAware
03:26PM 42.7620 -74.7220 91° East 539 620 35,000  Level FlightAware
03:27PM 42.7600 -74.5870 91° East 540 621 35,000  Level FlightAware
03:27PM 42.7590 -74.4560 91° East 541 623 35,000  Level FlightAware
03:28PM 42.7560 -74.2630 91° East 541 623 35,000  Level FlightAware
03:29PM 42.7540 -74.1850 92° East 539 620 35,000  Level FlightAware
03:29PM 42.7520 -74.0610 91° East 539 620 35,000  Level FlightAware
03:30PM 42.7490 -73.9110 92° East 539 620 35,000  Level FlightAware
03:30PM 42.7470 -73.8180 92° East 537 618 35,000 -900 Level FlightAware
03:31PM 42.7280 -73.6160 97° East 530 610 33,700 -1,500 Descending FlightAware
03:32PM 42.7180 -73.5250 98° East 524 603 32,800 -1,980 Descending FlightAware
03:33PM 42.6960 -73.3220 98° East 510 587 30,700 -1,980 Descending FlightAware
03:34PM 42.6770 -73.1490 98° East 497 572 28,900 -1,980 Descending FlightAware
03:34PM 42.6650 -73.0400 98° East 489 563 27,800 -1,920 Descending FlightAware
03:35PM 42.6550 -72.9530 99° East 482 555 26,900 -2,400 Descending FlightAware
03:36PM 42.6430 -72.8440 98° East 488 562 25,200 -2,520 Descending FlightAware
03:36PM 42.6340 -72.7660 99° East 481 554 24,300 -2,100 Descending FlightAware
03:37PM 42.6190 -72.6460 100° East 467 537 22,900 -2,040 Descending FlightAware
03:37PM 42.6050 -72.5310 99° East 457 526 21,600 -2,040 Descending FlightAware
03:38PM 42.5850 -72.3760 100° East 443 510 19,700 -2,040 Descending FlightAware
03:39PM 42.5730 -72.2740 99° East 434 499 18,500 -1,920 Descending FlightAware
03:40PM 42.5600 -72.1670 99° East 429 494 17,300 -1,860 Descending FlightAware
03:41PM 42.5420 -72.0080 99° East 420 483 15,400 -1,920 Descending FlightAware
03:42PM 42.5260 -71.8410 97° East 407 468 13,300 -1,860 Descending FlightAware
03:43PM 42.5110 -71.6810 97° East 398 458 11,400 -1,740 Descending FlightAware
03:43PM 42.5020 -71.5890 98° East 391 450 10,400 -960 Descending FlightAware
03:44PM 42.4920 -71.4830 97° East 356 410 10,100 -720 Descending FlightAware
03:45PM 42.4860 -71.4160 97° East 352 405 9,500 -600 Descending FlightAware
03:45PM 42.4760 -71.3130 97° East 344 396 9,400 -300 Descending FlightAware
03:46PM 42.4690 -71.2410 97° East 320 368 9,100 -660 Descending FlightAware
03:47PM 42.4620 -71.1660 97° East 304 350 8,600 -960 Descending FlightAware
03:47PM 42.4570 -71.1090 97° East 300 345 8,000 -1,140 Descending FlightAware
03:48PM 42.4510 -71.0440 97° East 300 345 7,400 -480 Descending FlightAware
03:48PM 42.4430 -70.9660 98° East 300 345 7,400 -180 Level FlightAware
03:49PM 42.4540 -70.8760 81° East 309 356 7,200 -420 Descending FlightAware
03:50PM 42.4630 -70.8220 77° East 301 346 6,900 -900 Descending FlightAware
03:50PM 42.4730 -70.7520 79° East 296 341 6,200 -1,020 Descending FlightAware
03:51PM 42.4840 -70.6930 76° East 287 330 5,700 -1,200 Descending FlightAware
03:51PM 42.4820 -70.6370 93° East 240 276 4,900 -1,200 Descending FlightAware
03:52PM 42.4560 -70.6110 144° Southeast 208 239 4,400 -480 Descending FlightAware
03:53PM 42.4320 -70.6080 175° South 126 145 4,400  Level FlightAware
03:53PM 42.4200 -70.6290 232° Southwest 121 139 4,400  Level FlightAware
03:54PM 42.4180 -70.6470 261° West 122 140 4,400  Level FlightAware
03:54PM 42.4150 -70.6740 261° West 123 142 4,400  Level FlightAware
03:55PM 42.4110 -70.6990 258° West 123 142 4,400 -240 Level FlightAware
03:55PM 42.4050 -70.7330 257° West 129 148 4,100 -480 Descending FlightAware
03:56PM 42.4010 -70.7580 258° West 134 154 3,800 -660 Descending FlightAware
03:56PM 42.3970 -70.7770 254° West 135 155 3,500 -720 Descending FlightAware
03:57PM 42.3950 -70.7930 260° West 136 157 3,300 -720 Descending FlightAware
03:57PM 42.3900 -70.8190 255° West 141 162 2,900 -840 Descending FlightAware
03:58PM 42.3850 -70.8470 256° West 144 166 2,500 -780 Descending FlightAware
03:58PM 42.3790 -70.8820 257° West 148 170 2,000 -780 Descending FlightAware
03:59PM 42.3740 -70.9110 257° West 140 161 1,600 -780 Descending FlightAware
03:59PM 42.3690 -70.9360 255° West 133 153 1,200 -780 Descending FlightAware
04:00PM 42.3640 -70.9660 257° West 140 161 800 -420 Descending FlightAware
04:01PM 42.3610 -70.9850 258° West 140 161 800  Level FlightAware